sensor_id;sensor_type;location;lat;lon;timestamp;P1;durP1;ratioP1;P2;durP2;ratioP2
9324;SDS011;4701;51.566;6.776;2022-11-15T05:01:58;8.53;;;6.90;;
9324;SDS011;4701;51.566;6.776;2022-11-15T05:04:18;8.40;;;6.80;;
9324;SDS011;4701;51.566;6.776;2022-11-15T05:06:40;7.37;;;6.50;;
9324;SDS011;4701;51.566;6.776;2022-11-15T05:09:00;9.47;;;6.43;;
9324;SDS011;4701;51.566;6.776;2022-11-15T05:11:20;8.50;;;6.37;;
9324;SDS011;4701;51.566;6.776;2022-11-15T05:13:41;8.20;;;6.40;;
9324;SDS011;4701;51.566;6.776;2022-11-15T05:16:01;9.47;;;6.37;;
9324;SDS011;4701;51.566;6.776;2022-11-15T05:18:23;8.47;;;6.47;;
9324;SDS011;4701;51.566;6.776;2022-11-15T05:20:43;9.80;;;7.30;;
9324;SDS011;4701;51.566;6.776;2022-11-15T05:23:03;8.83;;;6.50;;
9324;SDS011;4701;51.566;6.776;2022-11-15T05:25:23;10.07;;;6.97;;
9324;SDS011;4701;51.566;6.776;2022-11-15T05:27:44;7.83;;;6.30;;
9324;SDS011;4701;51.566;6.776;2022-11-15T05:30:04;7.30;;;6.57;;
9324;SDS011;4701;51.566;6.776;2022-11-15T05:32:25;8.00;;;6.70;;
9324;SDS011;4701;51.566;6.776;2022-11-15T05:34:49;7.93;;;6.13;;
9324;SDS011;4701;51.566;6.776;2022-11-15T05:37:09;8.27;;;6.37;;
9324;SDS011;4701;51.566;6.776;2022-11-15T05:39:30;7.60;;;5.80;;
9324;SDS011;4701;51.566;6.776;2022-11-15T05:41:52;6.83;;;5.50;;
9324;SDS011;4701;51.566;6.776;2022-11-15T05:44:17;9.03;;;5.70;;
9324;SDS011;4701;51.566;6.776;2022-11-15T05:46:42;7.57;;;5.13;;
9324;SDS011;4701;51.566;6.776;2022-11-15T05:49:03;7.37;;;5.60;;
9324;SDS011;4701;51.566;6.776;2022-11-15T05:51:31;7.50;;;4.90;;
9324;SDS011;4701;51.566;6.776;2022-11-15T05:53:52;5.57;;;4.60;;
9324;SDS011;4701;51.566;6.776;2022-11-15T05:56:15;5.93;;;5.33;;
9324;SDS011;4701;51.566;6.776;2022-11-15T05:58:36;5.90;;;5.10;;
9324;SDS011;4701;51.566;6.776;2022-11-15T06:00:57;5.43;;;4.93;;
9324;SDS011;4701;51.566;6.776;2022-11-15T06:03:17;6.83;;;5.20;;
9324;SDS011;4701;51.566;6.776;2022-11-15T06:05:38;6.20;;;5.20;;
9324;SDS011;4701;51.566;6.776;2022-11-15T06:08:00;5.60;;;4.97;;
9324;SDS011;4701;51.566;6.776;2022-11-15T06:10:20;5.77;;;5.20;;
9324;SDS011;4701;51.566;6.776;2022-11-15T06:12:41;6.00;;;5.37;;
9324;SDS011;4701;51.566;6.776;2022-11-15T06:15:01;5.40;;;4.90;;
9324;SDS011;4701;51.566;6.776;2022-11-15T06:17:22;6.30;;;5.23;;
9324;SDS011;4701;51.566;6.776;2022-11-15T06:19:42;6.97;;;5.03;;
9324;SDS011;4701;51.566;6.776;2022-11-15T06:22:03;5.77;;;5.13;;
9324;SDS011;4701;51.566;6.776;2022-11-15T06:24:25;5.80;;;5.20;;
9324;SDS011;4701;51.566;6.776;2022-11-15T06:26:46;6.47;;;5.73;;
9324;SDS011;4701;51.566;6.776;2022-11-15T06:29:06;7.23;;;6.07;;
9324;SDS011;4701;51.566;6.776;2022-11-15T06:31:26;6.70;;;6.10;;
9324;SDS011;4701;51.566;6.776;2022-11-15T06:33:47;8.90;;;6.33;;
9324;SDS011;4701;51.566;6.776;2022-11-15T06:36:09;7.73;;;6.13;;
9324;SDS011;4701;51.566;6.776;2022-11-15T06:38:32;7.53;;;6.10;;
9324;SDS011;4701;51.566;6.776;2022-11-15T06:40:54;7.33;;;6.37;;
9324;SDS011;4701;51.566;6.776;2022-11-15T06:43:14;8.90;;;6.83;;
9324;SDS011;4701;51.566;6.776;2022-11-15T06:45:35;6.87;;;5.97;;
9324;SDS011;4701;51.566;6.776;2022-11-15T06:47:55;7.13;;;6.43;;
9324;SDS011;4701;51.566;6.776;2022-11-15T06:50:15;6.63;;;5.90;;
9324;SDS011;4701;51.566;6.776;2022-11-15T06:52:36;6.23;;;5.63;;
9324;SDS011;4701;51.566;6.776;2022-11-15T06:54:56;8.00;;;6.50;;
9324;SDS011;4701;51.566;6.776;2022-11-15T06:57:18;7.17;;;6.47;;
9324;SDS011;4701;51.566;6.776;2022-11-15T06:59:38;6.63;;;6.03;;
9324;SDS011;4701;51.566;6.776;2022-11-15T07:01:59;8.07;;;6.70;;
9324;SDS011;4701;51.566;6.776;2022-11-15T07:04:19;8.27;;;6.07;;
9324;SDS011;4701;51.566;6.776;2022-11-15T07:06:39;7.30;;;5.80;;
9324;SDS011;4701;51.566;6.776;2022-11-15T07:09:01;6.40;;;5.67;;
9324;SDS011;4701;51.566;6.776;2022-11-15T07:11:22;5.93;;;5.40;;
9324;SDS011;4701;51.566;6.776;2022-11-15T07:13:44;6.33;;;5.20;;
9324;SDS011;4701;51.566;6.776;2022-11-15T07:16:04;8.03;;;5.33;;
9324;SDS011;4701;51.566;6.776;2022-11-15T07:18:27;6.20;;;5.47;;
9324;SDS011;4701;51.566;6.776;2022-11-15T07:20:48;7.57;;;5.73;;
9324;SDS011;4701;51.566;6.776;2022-11-15T07:23:08;7.73;;;5.83;;
9324;SDS011;4701;51.566;6.776;2022-11-15T07:25:29;7.03;;;5.27;;
9324;SDS011;4701;51.566;6.776;2022-11-15T07:27:53;6.43;;;5.83;;
9324;SDS011;4701;51.566;6.776;2022-11-15T07:30:16;7.47;;;5.33;;
9324;SDS011;4701;51.566;6.776;2022-11-15T07:32:36;6.33;;;5.67;;
9324;SDS011;4701;51.566;6.776;2022-11-15T07:34:57;5.63;;;5.03;;
9324;SDS011;4701;51.566;6.776;2022-11-15T07:37:18;5.53;;;4.97;;
9324;SDS011;4701;51.566;6.776;2022-11-15T07:39:38;5.77;;;5.20;;
9324;SDS011;4701;51.566;6.776;2022-11-15T07:41:58;7.17;;;4.93;;
9324;SDS011;4701;51.566;6.776;2022-11-15T07:44:33;5.70;;;4.97;;
9324;SDS011;4701;51.566;6.776;2022-11-15T07:46:55;5.00;;;4.50;;
9324;SDS011;4701;51.566;6.776;2022-11-15T07:49:17;5.97;;;4.50;;
9324;SDS011;4701;51.566;6.776;2022-11-15T07:51:37;6.03;;;4.93;;
9324;SDS011;4701;51.566;6.776;2022-11-15T07:53:57;5.07;;;4.57;;
9324;SDS011;4701;51.566;6.776;2022-11-15T07:56:18;6.80;;;4.70;;
9324;SDS011;4701;51.566;6.776;2022-11-15T07:58:39;8.10;;;5.70;;
9324;SDS011;4701;51.566;6.776;2022-11-15T08:01:02;7.13;;;4.40;;
9324;SDS011;4701;51.566;6.776;2022-11-15T08:03:24;4.03;;;3.63;;
9324;SDS011;4701;51.566;6.776;2022-11-15T08:05:49;5.67;;;3.40;;
9324;SDS011;4701;51.566;6.776;2022-11-15T08:08:10;10.17;;;3.07;;
9324;SDS011;4701;51.566;6.776;2022-11-15T08:10:31;3.87;;;2.83;;
9324;SDS011;4701;51.566;6.776;2022-11-15T08:12:59;4.33;;;3.20;;
9324;SDS011;4701;51.566;6.776;2022-11-15T08:15:20;6.70;;;3.37;;
9324;SDS011;4701;51.566;6.776;2022-11-15T08:17:40;3.33;;;2.67;;
9324;SDS011;4701;51.566;6.776;2022-11-15T08:20:04;2.87;;;2.10;;
9324;SDS011;4701;51.566;6.776;2022-11-15T08:22:25;7.93;;;2.33;;
9324;SDS011;4701;51.566;6.776;2022-11-15T08:24:45;5.97;;;2.30;;
9324;SDS011;4701;51.566;6.776;2022-11-15T08:27:05;4.00;;;1.77;;
9324;SDS011;4701;51.566;6.776;2022-11-15T08:29:34;5.93;;;2.43;;
9324;SDS011;4701;51.566;6.776;2022-11-15T08:31:55;6.33;;;3.50;;
9324;SDS011;4701;51.566;6.776;2022-11-15T08:34:16;7.83;;;3.87;;
9324;SDS011;4701;51.566;6.776;2022-11-15T08:36:38;5.87;;;4.03;;
9324;SDS011;4701;51.566;6.776;2022-11-15T08:38:58;9.30;;;4.20;;
9324;SDS011;4701;51.566;6.776;2022-11-15T08:41:21;9.87;;;4.47;;
9324;SDS011;4701;51.566;6.776;2022-11-15T08:43:46;4.63;;;3.77;;
9324;SDS011;4701;51.566;6.776;2022-11-15T08:46:07;4.53;;;3.07;;
9324;SDS011;4701;51.566;6.776;2022-11-15T08:48:31;4.30;;;3.17;;
9324;SDS011;4701;51.566;6.776;2022-11-15T08:50:53;5.53;;;2.47;;
9324;SDS011;4701;51.566;6.776;2022-11-15T08:53:14;2.90;;;2.07;;
9324;SDS011;4701;51.566;6.776;2022-11-15T08:55:35;3.57;;;2.40;;
9324;SDS011;4701;51.566;6.776;2022-11-15T08:57:57;5.40;;;2.50;;
9324;SDS011;4701;51.566;6.776;2022-11-15T09:00:18;4.10;;;2.50;;
9324;SDS011;4701;51.566;6.776;2022-11-15T09:02:40;3.87;;;2.80;;
9324;SDS011;4701;51.566;6.776;2022-11-15T09:05:00;4.00;;;2.80;;
9324;SDS011;4701;51.566;6.776;2022-11-15T09:07:22;7.47;;;2.93;;
9324;SDS011;4701;51.566;6.776;2022-11-15T09:09:44;4.60;;;2.93;;
9324;SDS011;4701;51.566;6.776;2022-11-15T09:12:05;6.13;;;3.03;;
9324;SDS011;4701;51.566;6.776;2022-11-15T09:14:26;5.23;;;3.20;;
9324;SDS011;4701;51.566;6.776;2022-11-15T09:16:47;5.90;;;3.33;;
9324;SDS011;4701;51.566;6.776;2022-11-15T09:19:08;6.87;;;3.90;;
9324;SDS011;4701;51.566;6.776;2022-11-15T09:21:28;6.17;;;4.37;;
9324;SDS011;4701;51.566;6.776;2022-11-15T09:23:49;7.93;;;4.30;;
9324;SDS011;4701;51.566;6.776;2022-11-15T09:26:12;6.00;;;3.70;;
9324;SDS011;4701;51.566;6.776;2022-11-15T09:28:33;7.33;;;3.33;;
9324;SDS011;4701;51.566;6.776;2022-11-15T09:30:55;6.50;;;3.60;;
9324;SDS011;4701;51.566;6.776;2022-11-15T09:33:17;6.57;;;3.40;;
9324;SDS011;4701;51.566;6.776;2022-11-15T09:35:37;8.27;;;3.97;;
9324;SDS011;4701;51.566;6.776;2022-11-15T09:37:59;7.57;;;3.70;;
9324;SDS011;4701;51.566;6.776;2022-11-15T09:40:19;7.33;;;4.40;;
9324;SDS011;4701;51.566;6.776;2022-11-15T09:42:46;9.53;;;4.60;;
9324;SDS011;4701;51.566;6.776;2022-11-15T09:45:22;6.80;;;4.13;;
9324;SDS011;4701;51.566;6.776;2022-11-15T09:50:36;6.20;;;3.50;;
9324;SDS011;4701;51.566;6.776;2022-11-15T09:52:44;7.73;;;3.30;;
9324;SDS011;4701;51.566;6.776;2022-11-15T09:54:47;5.00;;;3.30;;
9324;SDS011;4701;51.566;6.776;2022-11-15T09:56:51;6.40;;;2.70;;
9324;SDS011;4701;51.566;6.776;2022-11-15T09:58:57;6.13;;;2.83;;
9324;SDS011;4701;51.566;6.776;2022-11-15T10:01:17;4.43;;;2.90;;
9324;SDS011;4701;51.566;6.776;2022-11-15T10:03:27;6.43;;;3.23;;
9324;SDS011;4701;51.566;6.776;2022-11-15T10:05:36;6.63;;;3.27;;
9324;SDS011;4701;51.566;6.776;2022-11-15T10:07:41;6.50;;;3.53;;
9324;SDS011;4701;51.566;6.776;2022-11-15T10:09:49;4.40;;;3.47;;
9324;SDS011;4701;51.566;6.776;2022-11-15T10:11:54;5.07;;;3.07;;
9324;SDS011;4701;51.566;6.776;2022-11-15T10:13:59;4.97;;;3.30;;
9324;SDS011;4701;51.566;6.776;2022-11-15T10:16:08;3.67;;;3.23;;
9324;SDS011;4701;51.566;6.776;2022-11-15T10:18:24;3.93;;;2.90;;
9324;SDS011;4701;51.566;6.776;2022-11-15T10:20:40;4.63;;;3.70;;
9324;SDS011;4701;51.566;6.776;2022-11-15T10:22:48;4.63;;;3.67;;
9324;SDS011;4701;51.566;6.776;2022-11-15T10:24:52;4.97;;;4.07;;
9324;SDS011;4701;51.566;6.776;2022-11-15T10:27:09;5.43;;;3.97;;
9324;SDS011;4701;51.566;6.776;2022-11-15T10:29:18;4.00;;;3.00;;
9324;SDS011;4701;51.566;6.776;2022-11-15T10:31:22;3.60;;;3.20;;
9324;SDS011;4701;51.566;6.776;2022-11-15T10:33:26;6.73;;;3.13;;
9324;SDS011;4701;51.566;6.776;2022-11-15T10:35:35;3.70;;;2.40;;
9324;SDS011;4701;51.566;6.776;2022-11-15T10:37:37;4.90;;;2.33;;
9324;SDS011;4701;51.566;6.776;2022-11-15T10:39:39;3.97;;;1.90;;
9324;SDS011;4701;51.566;6.776;2022-11-15T10:41:41;3.53;;;1.80;;
9324;SDS011;4701;51.566;6.776;2022-11-15T10:43:44;3.30;;;1.70;;
9324;SDS011;4701;51.566;6.776;2022-11-15T10:45:50;5.53;;;2.20;;
9324;SDS011;4701;51.566;6.776;2022-11-15T10:47:53;5.07;;;2.90;;
9324;SDS011;4701;51.566;6.776;2022-11-15T10:49:56;3.17;;;1.93;;
9324;SDS011;4701;51.566;6.776;2022-11-15T10:52:02;3.00;;;1.60;;
9324;SDS011;4701;51.566;6.776;2022-11-15T10:54:21;4.23;;;2.20;;
9324;SDS011;4701;51.566;6.776;2022-11-15T10:56:26;2.30;;;1.60;;
9324;SDS011;4701;51.566;6.776;2022-11-15T10:58:31;2.60;;;1.40;;
9324;SDS011;4701;51.566;6.776;2022-11-15T11:00:36;3.70;;;1.50;;
9324;SDS011;4701;51.566;6.776;2022-11-15T11:02:42;3.67;;;1.30;;
9324;SDS011;4701;51.566;6.776;2022-11-15T11:04:57;1.40;;;1.13;;
9324;SDS011;4701;51.566;6.776;2022-11-15T11:07:00;2.50;;;1.53;;
9324;SDS011;4701;51.566;6.776;2022-11-15T11:09:02;3.87;;;1.50;;
9324;SDS011;4701;51.566;6.776;2022-11-15T11:11:06;2.53;;;1.40;;
9324;SDS011;4701;51.566;6.776;2022-11-15T11:13:12;2.87;;;1.30;;
9324;SDS011;4701;51.566;6.776;2022-11-15T11:15:16;2.53;;;1.70;;
9324;SDS011;4701;51.566;6.776;2022-11-15T11:17:21;2.10;;;1.20;;
9324;SDS011;4701;51.566;6.776;2022-11-15T11:19:37;4.07;;;1.30;;
9324;SDS011;4701;51.566;6.776;2022-11-15T11:21:49;3.60;;;1.67;;
9324;SDS011;4701;51.566;6.776;2022-11-15T11:23:58;4.33;;;1.33;;
9324;SDS011;4701;51.566;6.776;2022-11-15T11:26:12;3.27;;;1.30;;
9324;SDS011;4701;51.566;6.776;2022-11-15T11:28:29;2.30;;;1.50;;
9324;SDS011;4701;51.566;6.776;2022-11-15T11:30:43;1.50;;;1.20;;
9324;SDS011;4701;51.566;6.776;2022-11-15T11:32:57;2.97;;;1.63;;
9324;SDS011;4701;51.566;6.776;2022-11-15T11:35:17;3.70;;;1.57;;
9324;SDS011;4701;51.566;6.776;2022-11-15T11:37:36;2.40;;;2.00;;
9324;SDS011;4701;51.566;6.776;2022-11-15T11:39:47;5.43;;;1.80;;
9324;SDS011;4701;51.566;6.776;2022-11-15T11:42:03;6.47;;;1.90;;
9324;SDS011;4701;51.566;6.776;2022-11-15T11:44:16;2.33;;;1.67;;
9324;SDS011;4701;51.566;6.776;2022-11-15T11:48:51;2.63;;;1.50;;
9324;SDS011;4701;51.566;6.776;2022-11-15T11:51:03;5.13;;;1.20;;
9324;SDS011;4701;51.566;6.776;2022-11-15T11:53:12;2.23;;;1.50;;
9324;SDS011;4701;51.566;6.776;2022-11-15T11:55:18;2.33;;;1.60;;
9324;SDS011;4701;51.566;6.776;2022-11-15T11:57:25;3.00;;;1.50;;
9324;SDS011;4701;51.566;6.776;2022-11-15T11:59:36;5.57;;;1.30;;
9324;SDS011;4701;51.566;6.776;2022-11-15T12:01:43;4.33;;;1.40;;
9324;SDS011;4701;51.566;6.776;2022-11-15T12:03:48;5.60;;;1.43;;
9324;SDS011;4701;51.566;6.776;2022-11-15T12:05:54;2.00;;;1.20;;
9324;SDS011;4701;51.566;6.776;2022-11-15T12:08:03;2.10;;;1.03;;
9324;SDS011;4701;51.566;6.776;2022-11-15T12:10:15;1.60;;;1.00;;
9324;SDS011;4701;51.566;6.776;2022-11-15T12:12:25;2.67;;;1.23;;
9324;SDS011;4701;51.566;6.776;2022-11-15T12:14:32;2.90;;;1.07;;
9324;SDS011;4701;51.566;6.776;2022-11-15T12:16:41;3.97;;;1.50;;
9324;SDS011;4701;51.566;6.776;2022-11-15T12:18:44;2.77;;;1.20;;
9324;SDS011;4701;51.566;6.776;2022-11-15T12:20:50;3.53;;;1.30;;
9324;SDS011;4701;51.566;6.776;2022-11-15T12:22:57;3.20;;;1.20;;
9324;SDS011;4701;51.566;6.776;2022-11-15T12:25:08;5.10;;;1.47;;
9324;SDS011;4701;51.566;6.776;2022-11-15T12:27:22;3.73;;;1.40;;
9324;SDS011;4701;51.566;6.776;2022-11-15T12:29:33;3.27;;;1.20;;
9324;SDS011;4701;51.566;6.776;2022-11-15T12:31:41;4.23;;;1.13;;
9324;SDS011;4701;51.566;6.776;2022-11-15T12:33:46;2.53;;;1.23;;
9324;SDS011;4701;51.566;6.776;2022-11-15T12:35:57;3.30;;;1.60;;
9324;SDS011;4701;51.566;6.776;2022-11-15T12:38:00;4.10;;;1.43;;
9324;SDS011;4701;51.566;6.776;2022-11-15T12:40:04;1.97;;;1.10;;
9324;SDS011;4701;51.566;6.776;2022-11-15T12:42:41;2.87;;;1.00;;
9324;SDS011;4701;51.566;6.776;2022-11-15T12:44:56;2.97;;;1.00;;
9324;SDS011;4701;51.566;6.776;2022-11-15T12:47:03;4.90;;;1.47;;
9324;SDS011;4701;51.566;6.776;2022-11-15T12:56:42;5.07;;;0.93;;
9324;SDS011;4701;51.566;6.776;2022-11-15T12:58:46;2.20;;;1.10;;
9324;SDS011;4701;51.566;6.776;2022-11-15T13:00:50;2.47;;;0.93;;
9324;SDS011;4701;51.566;6.776;2022-11-15T13:02:55;3.53;;;0.97;;
9324;SDS011;4701;51.566;6.776;2022-11-15T13:07:55;2.03;;;1.00;;
9324;SDS011;4701;51.566;6.776;2022-11-15T13:09:58;3.07;;;1.23;;
9324;SDS011;4701;51.566;6.776;2022-11-15T13:12:00;4.20;;;1.60;;
9324;SDS011;4701;51.566;6.776;2022-11-15T13:14:07;2.40;;;1.03;;
9324;SDS011;4701;51.566;6.776;2022-11-15T13:16:49;3.10;;;1.43;;
9324;SDS011;4701;51.566;6.776;2022-11-15T13:18:59;3.17;;;0.90;;
9324;SDS011;4701;51.566;6.776;2022-11-15T13:21:04;2.73;;;1.30;;
9324;SDS011;4701;51.566;6.776;2022-11-15T13:23:38;3.77;;;1.30;;
9324;SDS011;4701;51.566;6.776;2022-11-15T13:28:18;1.43;;;0.90;;
9324;SDS011;4701;51.566;6.776;2022-11-15T13:30:23;2.63;;;1.10;;
9324;SDS011;4701;51.566;6.776;2022-11-15T13:32:28;2.00;;;0.80;;
9324;SDS011;4701;51.566;6.776;2022-11-15T13:34:30;2.73;;;1.00;;
9324;SDS011;4701;51.566;6.776;2022-11-15T13:36:35;4.67;;;1.50;;
9324;SDS011;4701;51.566;6.776;2022-11-15T13:38:38;3.77;;;1.20;;
9324;SDS011;4701;51.566;6.776;2022-11-15T13:40:41;3.83;;;0.80;;
9324;SDS011;4701;51.566;6.776;2022-11-15T13:42:42;3.50;;;1.23;;
9324;SDS011;4701;51.566;6.776;2022-11-15T13:44:54;5.20;;;1.10;;
9324;SDS011;4701;51.566;6.776;2022-11-15T13:47:03;3.83;;;1.10;;
9324;SDS011;4701;51.566;6.776;2022-11-15T13:49:09;2.67;;;1.10;;
9324;SDS011;4701;51.566;6.776;2022-11-15T13:51:17;7.47;;;1.20;;
9324;SDS011;4701;51.566;6.776;2022-11-15T13:53:22;2.83;;;1.17;;
9324;SDS011;4701;51.566;6.776;2022-11-15T13:55:24;3.60;;;1.13;;
9324;SDS011;4701;51.566;6.776;2022-11-15T13:57:27;3.83;;;1.00;;
9324;SDS011;4701;51.566;6.776;2022-11-15T13:59:33;4.73;;;1.50;;
9324;SDS011;4701;51.566;6.776;2022-11-15T14:01:36;4.20;;;1.20;;
9324;SDS011;4701;51.566;6.776;2022-11-15T14:03:40;5.03;;;1.27;;
9324;SDS011;4701;51.566;6.776;2022-11-15T14:06:01;3.97;;;1.40;;
9324;SDS011;4701;51.566;6.776;2022-11-15T14:08:13;2.70;;;1.30;;
9324;SDS011;4701;51.566;6.776;2022-11-15T14:10:27;1.63;;;0.90;;
9324;SDS011;4701;51.566;6.776;2022-11-15T14:12:32;2.20;;;1.07;;
9324;SDS011;4701;51.566;6.776;2022-11-15T14:14:35;4.33;;;1.60;;
9324;SDS011;4701;51.566;6.776;2022-11-15T14:16:47;4.80;;;2.20;;
9324;SDS011;4701;51.566;6.776;2022-11-15T14:18:51;2.20;;;1.20;;
9324;SDS011;4701;51.566;6.776;2022-11-15T14:21:06;5.17;;;1.30;;
9324;SDS011;4701;51.566;6.776;2022-11-15T14:23:18;3.63;;;1.20;;
9324;SDS011;4701;51.566;6.776;2022-11-15T14:25:25;5.27;;;1.17;;
9324;SDS011;4701;51.566;6.776;2022-11-15T14:27:27;2.13;;;1.33;;
9324;SDS011;4701;51.566;6.776;2022-11-15T14:29:29;9.83;;;5.40;;
9324;SDS011;4701;51.566;6.776;2022-11-15T14:31:31;6.60;;;1.50;;
9324;SDS011;4701;51.566;6.776;2022-11-15T14:33:34;4.83;;;1.80;;
9324;SDS011;4701;51.566;6.776;2022-11-15T14:35:37;5.60;;;1.50;;
9324;SDS011;4701;51.566;6.776;2022-11-15T14:37:41;3.37;;;1.50;;
9324;SDS011;4701;51.566;6.776;2022-11-15T14:39:43;4.33;;;1.20;;
9324;SDS011;4701;51.566;6.776;2022-11-15T14:41:44;2.97;;;1.23;;
9324;SDS011;4701;51.566;6.776;2022-11-15T14:43:46;5.03;;;1.50;;
9324;SDS011;4701;51.566;6.776;2022-11-15T14:45:48;2.37;;;1.10;;
9324;SDS011;4701;51.566;6.776;2022-11-15T14:47:50;3.43;;;1.00;;
9324;SDS011;4701;51.566;6.776;2022-11-15T14:49:52;3.63;;;1.30;;
9324;SDS011;4701;51.566;6.776;2022-11-15T14:51:53;2.07;;;1.10;;
9324;SDS011;4701;51.566;6.776;2022-11-15T14:53:56;4.63;;;1.20;;
9324;SDS011;4701;51.566;6.776;2022-11-15T14:55:58;1.93;;;1.20;;
9324;SDS011;4701;51.566;6.776;2022-11-15T14:58:00;8.53;;;5.20;;
9324;SDS011;4701;51.566;6.776;2022-11-15T15:00:03;10.27;;;7.83;;
9324;SDS011;4701;51.566;6.776;2022-11-15T15:02:15;5.17;;;3.00;;
9324;SDS011;4701;51.566;6.776;2022-11-15T15:04:19;17.27;;;11.37;;
9324;SDS011;4701;51.566;6.776;2022-11-15T15:06:21;5.30;;;3.63;;
9324;SDS011;4701;51.566;6.776;2022-11-15T15:08:22;3.87;;;2.80;;
9324;SDS011;4701;51.566;6.776;2022-11-15T15:10:25;3.33;;;1.20;;
9324;SDS011;4701;51.566;6.776;2022-11-15T15:12:34;5.50;;;1.73;;
9324;SDS011;4701;51.566;6.776;2022-11-15T15:14:36;2.90;;;1.57;;
9324;SDS011;4701;51.566;6.776;2022-11-15T15:16:38;4.10;;;1.90;;
9324;SDS011;4701;51.566;6.776;2022-11-15T15:18:39;2.30;;;1.23;;
9324;SDS011;4701;51.566;6.776;2022-11-15T15:20:41;5.53;;;1.53;;
9324;SDS011;4701;51.566;6.776;2022-11-15T15:22:45;5.63;;;1.50;;
9324;SDS011;4701;51.566;6.776;2022-11-15T15:24:47;3.93;;;1.40;;
9324;SDS011;4701;51.566;6.776;2022-11-15T15:26:50;1.97;;;1.17;;
9324;SDS011;4701;51.566;6.776;2022-11-15T15:28:52;3.37;;;1.50;;
9324;SDS011;4701;51.566;6.776;2022-11-15T15:30:54;3.30;;;1.60;;
9324;SDS011;4701;51.566;6.776;2022-11-15T15:32:55;4.33;;;1.40;;
9324;SDS011;4701;51.566;6.776;2022-11-15T15:34:57;5.47;;;1.67;;
9324;SDS011;4701;51.566;6.776;2022-11-15T15:37:09;5.33;;;1.63;;
9324;SDS011;4701;51.566;6.776;2022-11-15T15:39:23;2.63;;;1.67;;
9324;SDS011;4701;51.566;6.776;2022-11-15T15:41:26;4.07;;;1.60;;
9324;SDS011;4701;51.566;6.776;2022-11-15T15:43:30;3.33;;;1.70;;
9324;SDS011;4701;51.566;6.776;2022-11-15T15:45:31;4.33;;;2.10;;
9324;SDS011;4701;51.566;6.776;2022-11-15T15:47:34;3.63;;;1.70;;
9324;SDS011;4701;51.566;6.776;2022-11-15T15:49:35;3.73;;;1.93;;
9324;SDS011;4701;51.566;6.776;2022-11-15T15:51:37;2.77;;;1.70;;
9324;SDS011;4701;51.566;6.776;2022-11-15T15:53:39;5.53;;;2.23;;
9324;SDS011;4701;51.566;6.776;2022-11-15T15:55:40;3.10;;;2.07;;
9324;SDS011;4701;51.566;6.776;2022-11-15T15:57:42;3.10;;;1.80;;
9324;SDS011;4701;51.566;6.776;2022-11-15T15:59:45;3.67;;;1.90;;
9324;SDS011;4701;51.566;6.776;2022-11-15T16:01:47;4.23;;;2.17;;
9324;SDS011;4701;51.566;6.776;2022-11-15T16:03:49;5.43;;;2.50;;
9324;SDS011;4701;51.566;6.776;2022-11-15T16:05:50;4.93;;;2.60;;
9324;SDS011;4701;51.566;6.776;2022-11-15T16:07:55;8.17;;;2.63;;
9324;SDS011;4701;51.566;6.776;2022-11-15T16:09:57;4.37;;;2.23;;
9324;SDS011;4701;51.566;6.776;2022-11-15T16:12:01;5.73;;;2.93;;
9324;SDS011;4701;51.566;6.776;2022-11-15T16:14:02;11.27;;;7.90;;
9324;SDS011;4701;51.566;6.776;2022-11-15T16:16:07;15.87;;;12.33;;
9324;SDS011;4701;51.566;6.776;2022-11-15T16:18:15;8.30;;;4.77;;
9324;SDS011;4701;51.566;6.776;2022-11-15T16:20:23;5.07;;;4.13;;
9324;SDS011;4701;51.566;6.776;2022-11-15T16:22:30;4.70;;;2.63;;
9324;SDS011;4701;51.566;6.776;2022-11-15T16:24:32;3.80;;;2.50;;
9324;SDS011;4701;51.566;6.776;2022-11-15T16:26:33;3.37;;;2.63;;
9324;SDS011;4701;51.566;6.776;2022-11-15T16:28:37;6.43;;;3.67;;
9324;SDS011;4701;51.566;6.776;2022-11-15T16:30:38;3.93;;;3.20;;
9324;SDS011;4701;51.566;6.776;2022-11-15T16:32:41;6.70;;;5.60;;
9324;SDS011;4701;51.566;6.776;2022-11-15T16:34:43;6.03;;;3.30;;
9324;SDS011;4701;51.566;6.776;2022-11-15T16:36:45;3.47;;;1.97;;
9324;SDS011;4701;51.566;6.776;2022-11-15T16:38:47;3.00;;;2.30;;
9324;SDS011;4701;51.566;6.776;2022-11-15T16:40:49;6.20;;;4.03;;
9324;SDS011;4701;51.566;6.776;2022-11-15T16:42:51;6.83;;;4.57;;
9324;SDS011;4701;51.566;6.776;2022-11-15T16:44:52;5.63;;;3.30;;
9324;SDS011;4701;51.566;6.776;2022-11-15T16:46:54;6.10;;;2.83;;
9324;SDS011;4701;51.566;6.776;2022-11-15T16:48:57;3.23;;;1.87;;
9324;SDS011;4701;51.566;6.776;2022-11-15T16:52:58;2.10;;;1.70;;
9324;SDS011;4701;51.566;6.776;2022-11-15T16:55:00;3.50;;;2.40;;
9324;SDS011;4701;51.566;6.776;2022-11-15T16:57:01;2.97;;;2.33;;
9324;SDS011;4701;51.566;6.776;2022-11-15T16:59:03;4.73;;;2.27;;
9324;SDS011;4701;51.566;6.776;2022-11-15T17:01:10;3.50;;;2.13;;
9324;SDS011;4701;51.566;6.776;2022-11-15T17:03:18;4.37;;;2.07;;
9324;SDS011;4701;51.566;6.776;2022-11-15T17:05:21;4.70;;;1.97;;
9324;SDS011;4701;51.566;6.776;2022-11-15T17:07:24;4.23;;;2.33;;
9324;SDS011;4701;51.566;6.776;2022-11-15T17:09:27;5.57;;;4.33;;
9324;SDS011;4701;51.566;6.776;2022-11-15T17:11:28;6.03;;;4.03;;
9324;SDS011;4701;51.566;6.776;2022-11-15T17:13:30;3.23;;;2.13;;
9324;SDS011;4701;51.566;6.776;2022-11-15T17:15:32;3.40;;;2.20;;
9324;SDS011;4701;51.566;6.776;2022-11-15T17:17:34;2.40;;;2.03;;
9324;SDS011;4701;51.566;6.776;2022-11-15T17:19:36;2.47;;;2.13;;
9324;SDS011;4701;51.566;6.776;2022-11-15T17:21:43;3.97;;;1.90;;
9324;SDS011;4701;51.566;6.776;2022-11-15T17:23:46;4.83;;;2.53;;
9324;SDS011;4701;51.566;6.776;2022-11-15T17:26:01;1.90;;;1.77;;
9324;SDS011;4701;51.566;6.776;2022-11-15T17:28:07;3.27;;;1.90;;
9324;SDS011;4701;51.566;6.776;2022-11-15T17:30:14;4.63;;;2.30;;
9324;SDS011;4701;51.566;6.776;2022-11-15T17:32:17;7.00;;;1.90;;
9324;SDS011;4701;51.566;6.776;2022-11-15T17:34:20;2.97;;;2.20;;
9324;SDS011;4701;51.566;6.776;2022-11-15T17:36:24;3.47;;;2.27;;
9324;SDS011;4701;51.566;6.776;2022-11-15T17:38:26;3.40;;;2.20;;
9324;SDS011;4701;51.566;6.776;2022-11-15T17:40:41;4.20;;;2.27;;
9324;SDS011;4701;51.566;6.776;2022-11-15T17:42:44;2.37;;;2.00;;
9324;SDS011;4701;51.566;6.776;2022-11-15T17:44:47;2.80;;;2.03;;
9324;SDS011;4701;51.566;6.776;2022-11-15T17:46:48;3.17;;;1.93;;
9324;SDS011;4701;51.566;6.776;2022-11-15T17:48:50;2.87;;;1.93;;
9324;SDS011;4701;51.566;6.776;2022-11-15T17:50:55;4.93;;;2.10;;
9324;SDS011;4701;51.566;6.776;2022-11-15T17:52:57;3.70;;;1.50;;
9324;SDS011;4701;51.566;6.776;2022-11-15T17:55:00;4.30;;;1.90;;
9324;SDS011;4701;51.566;6.776;2022-11-15T17:57:02;5.23;;;2.33;;
9324;SDS011;4701;51.566;6.776;2022-11-15T17:59:05;4.63;;;2.77;;
9324;SDS011;4701;51.566;6.776;2022-11-15T18:01:09;3.20;;;2.53;;
9324;SDS011;4701;51.566;6.776;2022-11-15T18:03:15;2.10;;;1.70;;
9324;SDS011;4701;51.566;6.776;2022-11-15T18:05:17;3.93;;;2.00;;
9324;SDS011;4701;51.566;6.776;2022-11-15T18:07:19;3.90;;;2.37;;
9324;SDS011;4701;51.566;6.776;2022-11-15T18:09:20;2.20;;;2.00;;
9324;SDS011;4701;51.566;6.776;2022-11-15T18:11:24;3.00;;;1.83;;
9324;SDS011;4701;51.566;6.776;2022-11-15T18:13:27;2.93;;;2.07;;
9324;SDS011;4701;51.566;6.776;2022-11-15T18:15:30;2.10;;;1.87;;
9324;SDS011;4701;51.566;6.776;2022-11-15T18:17:32;3.43;;;1.80;;
9324;SDS011;4701;51.566;6.776;2022-11-15T18:19:34;5.70;;;5.10;;
9324;SDS011;4701;51.566;6.776;2022-11-15T18:21:36;7.63;;;6.13;;
9324;SDS011;4701;51.566;6.776;2022-11-15T18:23:55;2.90;;;2.07;;
9324;SDS011;4701;51.566;6.776;2022-11-15T18:25:58;1.77;;;1.63;;
9324;SDS011;4701;51.566;6.776;2022-11-15T18:28:00;2.43;;;1.90;;
9324;SDS011;4701;51.566;6.776;2022-11-15T18:30:02;1.83;;;1.70;;
9324;SDS011;4701;51.566;6.776;2022-11-15T18:32:06;4.33;;;1.70;;
9324;SDS011;4701;51.566;6.776;2022-11-15T18:34:11;3.43;;;1.87;;
9324;SDS011;4701;51.566;6.776;2022-11-15T18:36:13;2.80;;;2.00;;
9324;SDS011;4701;51.566;6.776;2022-11-15T18:38:16;3.07;;;2.00;;
9324;SDS011;4701;51.566;6.776;2022-11-15T18:40:17;4.23;;;3.37;;
9324;SDS011;4701;51.566;6.776;2022-11-15T18:42:19;3.97;;;2.60;;
9324;SDS011;4701;51.566;6.776;2022-11-15T18:44:21;3.20;;;2.07;;
9324;SDS011;4701;51.566;6.776;2022-11-15T18:46:23;3.90;;;2.33;;
9324;SDS011;4701;51.566;6.776;2022-11-15T18:48:29;4.43;;;2.20;;
9324;SDS011;4701;51.566;6.776;2022-11-15T18:50:36;3.37;;;2.13;;
9324;SDS011;4701;51.566;6.776;2022-11-15T18:52:37;2.63;;;1.97;;
9324;SDS011;4701;51.566;6.776;2022-11-15T18:54:39;3.87;;;1.87;;